sensor_id;sensor_type;location;lat;lon;timestamp;pressure;altitude;pressure_sealevel;temperature;humidity
45040;BME280;30778;53.574;7.770;2023-03-03T00:01:33;102547.25;;;-0.65;55.80
45040;BME280;30778;53.574;7.770;2023-03-03T00:03:59;102553.88;;;-0.71;55.25
45040;BME280;30778;53.574;7.770;2023-03-03T00:06:24;102552.44;;;-0.89;55.37
45040;BME280;30778;53.574;7.770;2023-03-03T00:08:51;102546.22;;;-0.95;55.74
45040;BME280;30778;53.574;7.770;2023-03-03T00:11:16;102549.53;;;-0.98;55.70
45040;BME280;30778;53.574;7.770;2023-03-03T00:13:46;102545.41;;;-0.94;55.56
45040;BME280;30778;53.574;7.770;2023-03-03T00:18:41;102546.56;;;-1.09;55.46
45040;BME280;30778;53.574;7.770;2023-03-03T00:26:38;102535.44;;;-1.09;55.53
45040;BME280;30778;53.574;7.770;2023-03-03T00:31:51;102536.44;;;-1.30;55.39
45040;BME280;30778;53.574;7.770;2023-03-03T00:36:43;102539.63;;;-1.35;55.71
45040;BME280;30778;53.574;7.770;2023-03-03T00:41:40;102545.97;;;-1.50;55.25
45040;BME280;30778;53.574;7.770;2023-03-03T00:46:55;102538.78;;;-1.59;55.38
45040;BME280;30778;53.574;7.770;2023-03-03T00:49:24;102548.06;;;-1.62;55.52
45040;BME280;30778;53.574;7.770;2023-03-03T00:51:51;102539.56;;;-1.61;55.59
45040;BME280;30778;53.574;7.770;2023-03-03T00:54:17;102537.34;;;-1.52;55.26
45040;BME280;30778;53.574;7.770;2023-03-03T00:56:43;102534.53;;;-1.58;55.06
45040;BME280;30778;53.574;7.770;2023-03-03T00:59:09;102538.34;;;-1.71;55.27
45040;BME280;30778;53.574;7.770;2023-03-03T01:01:35;102532.00;;;-1.81;55.17
45040;BME280;30778;53.574;7.770;2023-03-03T01:04:00;102532.13;;;-1.77;55.59
45040;BME280;30778;53.574;7.770;2023-03-03T01:06:26;102530.34;;;-1.78;55.43
45040;BME280;30778;53.574;7.770;2023-03-03T01:08:52;102532.22;;;-1.74;55.24
45040;BME280;30778;53.574;7.770;2023-03-03T01:11:23;102540.03;;;-1.71;55.29
45040;BME280;30778;53.574;7.770;2023-03-03T01:13:50;102541.66;;;-1.73;55.04
45040;BME280;30778;53.574;7.770;2023-03-03T01:16:17;102536.66;;;-1.93;55.31
45040;BME280;30778;53.574;7.770;2023-03-03T01:18:42;102545.72;;;-2.01;56.00
45040;BME280;30778;53.574;7.770;2023-03-03T01:21:09;102537.09;;;-1.81;55.67
45040;BME280;30778;53.574;7.770;2023-03-03T01:23:35;102542.38;;;-1.77;55.57
45040;BME280;30778;53.574;7.770;2023-03-03T01:26:01;102535.38;;;-1.82;55.49
45040;BME280;30778;53.574;7.770;2023-03-03T01:28:26;102536.84;;;-1.88;55.27
45040;BME280;30778;53.574;7.770;2023-03-03T01:30:52;102538.75;;;-1.83;55.29
45040;BME280;30778;53.574;7.770;2023-03-03T01:33:17;102532.91;;;-2.01;55.56
45040;BME280;30778;53.574;7.770;2023-03-03T01:35:45;102534.25;;;-2.11;55.75
45040;BME280;30778;53.574;7.770;2023-03-03T01:38:11;102540.16;;;-1.91;55.75
45040;BME280;30778;53.574;7.770;2023-03-03T01:40:37;102543.34;;;-1.96;55.13
45040;BME280;30778;53.574;7.770;2023-03-03T01:43:02;102536.13;;;-2.07;55.53
45040;BME280;30778;53.574;7.770;2023-03-03T01:48:22;102535.69;;;-2.17;55.66
45040;BME280;30778;53.574;7.770;2023-03-03T01:51:23;102535.44;;;-2.24;55.47
45040;BME280;30778;53.574;7.770;2023-03-03T01:53:52;102540.16;;;-2.34;55.49
45040;BME280;30778;53.574;7.770;2023-03-03T01:56:20;102534.44;;;-2.27;55.07
45040;BME280;30778;53.574;7.770;2023-03-03T01:58:51;102535.88;;;-2.34;55.14
45040;BME280;30778;53.574;7.770;2023-03-03T02:01:23;102535.09;;;-2.33;55.18
45040;BME280;30778;53.574;7.770;2023-03-03T02:03:50;102532.81;;;-2.25;55.36
45040;BME280;30778;53.574;7.770;2023-03-03T02:06:20;102528.47;;;-2.28;55.23
45040;BME280;30778;53.574;7.770;2023-03-03T02:11:59;102538.34;;;-2.58;55.04
45040;BME280;30778;53.574;7.770;2023-03-03T02:14:25;102536.09;;;-2.50;55.13
45040;BME280;30778;53.574;7.770;2023-03-03T02:16:51;102532.09;;;-2.65;55.16
45040;BME280;30778;53.574;7.770;2023-03-03T02:19:42;102523.22;;;-2.73;55.26
45040;BME280;30778;53.574;7.770;2023-03-03T02:22:10;102531.22;;;-3.06;55.68
45040;BME280;30778;53.574;7.770;2023-03-03T02:24:56;102526.56;;;-3.14;55.48
45040;BME280;30778;53.574;7.770;2023-03-03T02:27:26;102523.69;;;-3.02;55.84
45040;BME280;30778;53.574;7.770;2023-03-03T02:29:52;102524.69;;;-2.99;55.22
45040;BME280;30778;53.574;7.770;2023-03-03T02:32:19;102522.06;;;-3.00;55.09
45040;BME280;30778;53.574;7.770;2023-03-03T02:34:51;102524.84;;;-3.15;55.83
45040;BME280;30778;53.574;7.770;2023-03-03T02:37:18;102526.75;;;-3.10;55.45
45040;BME280;30778;53.574;7.770;2023-03-03T02:39:44;102523.03;;;-3.18;55.32
45040;BME280;30778;53.574;7.770;2023-03-03T02:42:19;102521.81;;;-3.07;55.57
45040;BME280;30778;53.574;7.770;2023-03-03T02:44:51;102519.06;;;-2.90;55.34
45040;BME280;30778;53.574;7.770;2023-03-03T02:47:16;102526.34;;;-2.80;54.90
45040;BME280;30778;53.574;7.770;2023-03-03T02:49:42;102515.16;;;-2.82;54.82
45040;BME280;30778;53.574;7.770;2023-03-03T02:52:11;102515.09;;;-2.84;54.99
45040;BME280;30778;53.574;7.770;2023-03-03T02:54:39;102516.09;;;-2.80;54.69
45040;BME280;30778;53.574;7.770;2023-03-03T02:57:06;102512.69;;;-3.00;54.68
45040;BME280;30778;53.574;7.770;2023-03-03T02:59:32;102511.94;;;-2.97;54.58
45040;BME280;30778;53.574;7.770;2023-03-03T03:02:05;102506.97;;;-2.94;54.76
45040;BME280;30778;53.574;7.770;2023-03-03T03:04:34;102504.84;;;-3.05;54.85
45040;BME280;30778;53.574;7.770;2023-03-03T03:07:00;102502.69;;;-3.15;54.95
45040;BME280;30778;53.574;7.770;2023-03-03T03:09:27;102499.44;;;-3.11;54.85
45040;BME280;30778;53.574;7.770;2023-03-03T03:11:53;102496.97;;;-3.09;54.68
45040;BME280;30778;53.574;7.770;2023-03-03T03:14:22;102500.94;;;-3.16;54.74
45040;BME280;30778;53.574;7.770;2023-03-03T03:16:49;102499.94;;;-3.19;54.75
45040;BME280;30778;53.574;7.770;2023-03-03T03:19:14;102505.41;;;-3.31;54.75
45040;BME280;30778;53.574;7.770;2023-03-03T03:21:42;102508.28;;;-3.23;55.44
45040;BME280;30778;53.574;7.770;2023-03-03T03:24:08;102498.19;;;-3.20;55.00
45040;BME280;30778;53.574;7.770;2023-03-03T03:26:36;102504.03;;;-3.23;54.52
45040;BME280;30778;53.574;7.770;2023-03-03T03:29:04;102500.78;;;-3.19;54.77
45040;BME280;30778;53.574;7.770;2023-03-03T03:31:31;102506.53;;;-3.24;54.62
45040;BME280;30778;53.574;7.770;2023-03-03T03:33:56;102510.75;;;-3.25;54.63
45040;BME280;30778;53.574;7.770;2023-03-03T03:36:25;102512.53;;;-3.24;54.56
45040;BME280;30778;53.574;7.770;2023-03-03T03:38:52;102515.88;;;-3.25;54.67
45040;BME280;30778;53.574;7.770;2023-03-03T03:41:18;102523.13;;;-3.34;54.82
45040;BME280;30778;53.574;7.770;2023-03-03T03:43:44;102520.97;;;-3.25;54.80
45040;BME280;30778;53.574;7.770;2023-03-03T03:46:10;102515.34;;;-3.18;54.74
45040;BME280;30778;53.574;7.770;2023-03-03T03:48:35;102521.81;;;-3.26;54.65
45040;BME280;30778;53.574;7.770;2023-03-03T03:51:03;102523.97;;;-3.35;54.88
45040;BME280;30778;53.574;7.770;2023-03-03T03:53:29;102528.25;;;-3.34;54.75
45040;BME280;30778;53.574;7.770;2023-03-03T03:55:55;102528.25;;;-3.34;54.49
45040;BME280;30778;53.574;7.770;2023-03-03T03:58:21;102529.94;;;-3.35;54.62
45040;BME280;30778;53.574;7.770;2023-03-03T04:00:53;102527.03;;;-3.23;54.47
45040;BME280;30778;53.574;7.770;2023-03-03T04:03:18;102526.25;;;-3.22;54.60
45040;BME280;30778;53.574;7.770;2023-03-03T04:05:51;102526.59;;;-3.34;54.50
45040;BME280;30778;53.574;7.770;2023-03-03T04:08:17;102525.56;;;-3.37;54.69
45040;BME280;30778;53.574;7.770;2023-03-03T04:10:42;102523.97;;;-3.35;54.83
45040;BME280;30778;53.574;7.770;2023-03-03T04:13:08;102526.25;;;-3.41;54.65
45040;BME280;30778;53.574;7.770;2023-03-03T04:15:34;102530.75;;;-3.55;55.04
45040;BME280;30778;53.574;7.770;2023-03-03T04:18:00;102522.88;;;-3.60;55.24
45040;BME280;30778;53.574;7.770;2023-03-03T04:20:27;102530.66;;;-3.76;55.91
45040;BME280;30778;53.574;7.770;2023-03-03T04:22:54;102521.72;;;-3.67;55.63
45040;BME280;30778;53.574;7.770;2023-03-03T04:25:22;102514.53;;;-3.56;55.31
45040;BME280;30778;53.574;7.770;2023-03-03T04:27:49;102511.31;;;-3.52;55.18
45040;BME280;30778;53.574;7.770;2023-03-03T04:30:17;102518.34;;;-3.65;55.55
45040;BME280;30778;53.574;7.770;2023-03-03T04:32:46;102512.09;;;-3.53;55.73
45040;BME280;30778;53.574;7.770;2023-03-03T04:35:12;102508.81;;;-3.50;55.39
45040;BME280;30778;53.574;7.770;2023-03-03T04:37:41;102514.25;;;-3.62;55.54
45040;BME280;30778;53.574;7.770;2023-03-03T04:40:08;102511.91;;;-3.57;55.38
45040;BME280;30778;53.574;7.770;2023-03-03T04:42:34;102513.19;;;-3.67;55.16
45040;BME280;30778;53.574;7.770;2023-03-03T04:45:02;102504.31;;;-3.56;55.76
45040;BME280;30778;53.574;7.770;2023-03-03T04:47:29;102505.13;;;-3.37;55.27
45040;BME280;30778;53.574;7.770;2023-03-03T04:49:57;102507.69;;;-3.37;55.29
45040;BME280;30778;53.574;7.770;2023-03-03T04:52:22;102502.69;;;-3.34;55.29
45040;BME280;30778;53.574;7.770;2023-03-03T04:54:48;102495.84;;;-3.35;55.19
45040;BME280;30778;53.574;7.770;2023-03-03T04:57:14;102498.75;;;-3.47;55.20
45040;BME280;30778;53.574;7.770;2023-03-03T04:59:40;102491.91;;;-3.66;55.43
45040;BME280;30778;53.574;7.770;2023-03-03T05:02:08;102494.22;;;-3.53;55.50
45040;BME280;30778;53.574;7.770;2023-03-03T05:04:34;102499.78;;;-3.61;55.40
45040;BME280;30778;53.574;7.770;2023-03-03T05:07:00;102498.25;;;-3.58;55.21
45040;BME280;30778;53.574;7.770;2023-03-03T05:09:26;102500.13;;;-3.73;55.58
45040;BME280;30778;53.574;7.770;2023-03-03T05:11:51;102497.09;;;-3.64;55.67
45040;BME280;30778;53.574;7.770;2023-03-03T05:14:17;102501.03;;;-3.91;55.85
45040;BME280;30778;53.574;7.770;2023-03-03T05:16:42;102494.31;;;-3.89;55.90
45040;BME280;30778;53.574;7.770;2023-03-03T05:19:08;102489.19;;;-3.89;55.58
45040;BME280;30778;53.574;7.770;2023-03-03T05:21:34;102486.84;;;-3.84;55.65
45040;BME280;30778;53.574;7.770;2023-03-03T05:23:59;102488.00;;;-3.77;55.61
45040;BME280;30778;53.574;7.770;2023-03-03T05:26:25;102484.22;;;-3.85;55.56
45040;BME280;30778;53.574;7.770;2023-03-03T05:28:50;102484.69;;;-3.94;55.87
45040;BME280;30778;53.574;7.770;2023-03-03T05:31:16;102483.38;;;-4.04;56.19
45040;BME280;30778;53.574;7.770;2023-03-03T05:33:41;102499.22;;;-4.11;56.23
45040;BME280;30778;53.574;7.770;2023-03-03T05:36:07;102498.50;;;-4.09;56.16
45040;BME280;30778;53.574;7.770;2023-03-03T05:38:32;102496.16;;;-4.04;56.01
45040;BME280;30778;53.574;7.770;2023-03-03T05:40:58;102496.47;;;-4.16;56.31
45040;BME280;30778;53.574;7.770;2023-03-03T05:43:23;102504.69;;;-4.21;56.37
45040;BME280;30778;53.574;7.770;2023-03-03T05:45:54;102499.22;;;-4.11;56.06
45040;BME280;30778;53.574;7.770;2023-03-03T05:48:21;102506.28;;;-4.05;55.81
45040;BME280;30778;53.574;7.770;2023-03-03T05:50:47;102502.88;;;-4.06;55.79
45040;BME280;30778;53.574;7.770;2023-03-03T05:53:12;102502.78;;;-3.90;55.43
45040;BME280;30778;53.574;7.770;2023-03-03T05:55:38;102500.59;;;-4.00;55.64
45040;BME280;30778;53.574;7.770;2023-03-03T05:58:03;102502.63;;;-3.93;55.39
45040;BME280;30778;53.574;7.770;2023-03-03T06:00:29;102508.19;;;-4.19;55.97
45040;BME280;30778;53.574;7.770;2023-03-03T06:02:55;102516.97;;;-4.14;55.69
45040;BME280;30778;53.574;7.770;2023-03-03T06:05:21;102520.75;;;-4.24;56.03
45040;BME280;30778;53.574;7.770;2023-03-03T06:07:46;102520.00;;;-4.21;56.20
45040;BME280;30778;53.574;7.770;2023-03-03T06:10:12;102524.34;;;-4.20;55.83
45040;BME280;30778;53.574;7.770;2023-03-03T06:12:39;102525.22;;;-4.20;55.85
45040;BME280;30778;53.574;7.770;2023-03-03T06:15:07;102537.84;;;-4.23;56.60
45040;BME280;30778;53.574;7.770;2023-03-03T06:17:33;102545.41;;;-4.24;56.47
45040;BME280;30778;53.574;7.770;2023-03-03T06:19:58;102542.34;;;-3.99;55.89
45040;BME280;30778;53.574;7.770;2023-03-03T06:22:24;102550.16;;;-3.96;56.29
45040;BME280;30778;53.574;7.770;2023-03-03T06:24:49;102543.38;;;-3.96;56.08
45040;BME280;30778;53.574;7.770;2023-03-03T06:27:17;102548.06;;;-4.05;55.80
45040;BME280;30778;53.574;7.770;2023-03-03T06:29:43;102546.94;;;-3.92;56.23
45040;BME280;30778;53.574;7.770;2023-03-03T06:32:09;102548.91;;;-4.04;56.28
45040;BME280;30778;53.574;7.770;2023-03-03T06:34:36;102543.34;;;-3.78;56.36
45040;BME280;30778;53.574;7.770;2023-03-03T06:37:02;102544.81;;;-3.65;56.33
45040;BME280;30778;53.574;7.770;2023-03-03T06:39:27;102551.69;;;-3.82;56.05
45040;BME280;30778;53.574;7.770;2023-03-03T06:41:53;102547.22;;;-3.86;55.92
45040;BME280;30778;53.574;7.770;2023-03-03T06:44:18;102544.25;;;-3.95;55.88
45040;BME280;30778;53.574;7.770;2023-03-03T06:46:44;102547.38;;;-3.83;56.12
45040;BME280;30778;53.574;7.770;2023-03-03T06:49:09;102551.19;;;-3.55;56.23
45040;BME280;30778;53.574;7.770;2023-03-03T06:51:37;102540.78;;;-3.40;55.71
45040;BME280;30778;53.574;7.770;2023-03-03T06:54:15;102556.50;;;-3.51;55.70
45040;BME280;30778;53.574;7.770;2023-03-03T06:56:42;102540.31;;;-3.32;55.14
45040;BME280;30778;53.574;7.770;2023-03-03T06:59:13;102543.34;;;-3.21;54.92
45040;BME280;30778;53.574;7.770;2023-03-03T07:01:40;102541.81;;;-2.77;54.65
45040;BME280;30778;53.574;7.770;2023-03-03T07:04:21;102543.97;;;-2.67;53.70
45040;BME280;30778;53.574;7.770;2023-03-03T07:06:49;102551.56;;;-2.68;52.83
45040;BME280;30778;53.574;7.770;2023-03-03T07:09:26;102557.28;;;-2.33;52.96
45040;BME280;30778;53.574;7.770;2023-03-03T07:11:56;102557.19;;;-2.14;52.77
45040;BME280;30778;53.574;7.770;2023-03-03T07:14:24;102555.81;;;-2.06;52.65
45040;BME280;30778;53.574;7.770;2023-03-03T07:16:57;102559.22;;;-1.38;51.80
45040;BME280;30778;53.574;7.770;2023-03-03T07:19:32;102565.44;;;-0.59;50.83
45040;BME280;30778;53.574;7.770;2023-03-03T07:22:07;102563.44;;;0.13;47.99
45040;BME280;30778;53.574;7.770;2023-03-03T07:24:36;102561.91;;;0.78;49.60
45040;BME280;30778;53.574;7.770;2023-03-03T07:30:26;102559.38;;;0.49;45.42
45040;BME280;30778;53.574;7.770;2023-03-03T07:32:54;102565.78;;;-0.22;46.76
45040;BME280;30778;53.574;7.770;2023-03-03T07:35:40;102566.91;;;-0.40;48.58
45040;BME280;30778;53.574;7.770;2023-03-03T07:38:22;102568.25;;;-0.51;48.96
45040;BME280;30778;53.574;7.770;2023-03-03T07:40:51;102569.81;;;-0.56;49.04
45040;BME280;30778;53.574;7.770;2023-03-03T07:46:39;102559.13;;;-1.41;49.52
45040;BME280;30778;53.574;7.770;2023-03-03T07:49:20;102568.06;;;0.24;51.06
45040;BME280;30778;53.574;7.770;2023-03-03T07:51:46;102558.66;;;1.85;44.71
45040;BME280;30778;53.574;7.770;2023-03-03T08:03:02;102555.75;;;3.93;37.12
45040;BME280;30778;53.574;7.770;2023-03-03T08:05:37;102547.28;;;5.62;38.69
45040;BME280;30778;53.574;7.770;2023-03-03T08:11:00;102550.38;;;8.53;32.52
45040;BME280;30778;53.574;7.770;2023-03-03T08:13:40;102547.63;;;8.88;33.88
45040;BME280;30778;53.574;7.770;2023-03-03T08:18:43;102545.25;;;8.34;32.16
45040;BME280;30778;53.574;7.770;2023-03-03T08:21:15;102545.78;;;5.95;35.52
45040;BME280;30778;53.574;7.770;2023-03-03T08:23:42;102548.22;;;4.80;36.79
45040;BME280;30778;53.574;7.770;2023-03-03T08:26:07;102557.63;;;4.04;39.52
45040;BME280;30778;53.574;7.770;2023-03-03T08:28:34;102555.75;;;3.40;41.18
45040;BME280;30778;53.574;7.770;2023-03-03T08:30:59;102551.94;;;2.72;42.47
45040;BME280;30778;53.574;7.770;2023-03-03T08:33:25;102550.88;;;2.20;43.89
45040;BME280;30778;53.574;7.770;2023-03-03T08:35:50;102554.13;;;2.13;45.06
45040;BME280;30778;53.574;7.770;2023-03-03T08:38:19;102552.09;;;2.00;45.97
45040;BME280;30778;53.574;7.770;2023-03-03T08:40:45;102553.91;;;2.02;46.54
45040;BME280;30778;53.574;7.770;2023-03-03T08:43:12;102552.75;;;1.55;47.21
45040;BME280;30778;53.574;7.770;2023-03-03T08:45:45;102543.56;;;1.64;47.67
45040;BME280;30778;53.574;7.770;2023-03-03T08:48:11;102548.84;;;1.69;48.53
45040;BME280;30778;53.574;7.770;2023-03-03T08:50:37;102552.47;;;1.42;48.78
45040;BME280;30778;53.574;7.770;2023-03-03T08:53:04;102543.47;;;1.60;48.83
45040;BME280;30778;53.574;7.770;2023-03-03T08:55:30;102548.53;;;1.57;49.05
45040;BME280;30778;53.574;7.770;2023-03-03T08:57:56;102543.81;;;1.75;49.86
45040;BME280;30778;53.574;7.770;2023-03-03T09:00:21;102549.19;;;1.84;49.76
45040;BME280;30778;53.574;7.770;2023-03-03T09:02:50;102550.38;;;1.29;50.81
45040;BME280;30778;53.574;7.770;2023-03-03T09:05:16;102543.03;;;1.79;50.85
45040;BME280;30778;53.574;7.770;2023-03-03T09:07:43;102545.88;;;1.54;51.10
45040;BME280;30778;53.574;7.770;2023-03-03T09:10:12;102542.22;;;1.45;51.53
45040;BME280;30778;53.574;7.770;2023-03-03T09:12:44;102539.28;;;1.65;52.17
45040;BME280;30778;53.574;7.770;2023-03-03T09:15:17;102537.88;;;1.79;52.65
45040;BME280;30778;53.574;7.770;2023-03-03T09:17:44;102545.16;;;1.96;51.51
45040;BME280;30778;53.574;7.770;2023-03-03T09:22:54;102544.94;;;2.26;51.58
45040;BME280;30778;53.574;7.770;2023-03-03T09:25:53;102546.94;;;2.80;50.60
45040;BME280;30778;53.574;7.770;2023-03-03T09:28:27;102553.78;;;2.80;50.20
45040;BME280;30778;53.574;7.770;2023-03-03T09:30:58;102556.19;;;2.70;50.98
45040;BME280;30778;53.574;7.770;2023-03-03T09:33:43;102554.88;;;3.38;50.55
45040;BME280;30778;53.574;7.770;2023-03-03T09:36:28;102553.38;;;3.49;49.63
45040;BME280;30778;53.574;7.770;2023-03-03T09:38:56;102547.69;;;3.72;48.46
45040;BME280;30778;53.574;7.770;2023-03-03T09:44:29;102564.56;;;3.50;49.94
45040;BME280;30778;53.574;7.770;2023-03-03T09:50:16;102559.69;;;4.29;49.57
45040;BME280;30778;53.574;7.770;2023-03-03T09:53:01;102562.53;;;4.48;48.83
45040;BME280;30778;53.574;7.770;2023-03-03T10:04:09;102560.28;;;4.78;47.60
45040;BME280;30778;53.574;7.770;2023-03-03T10:06:55;102566.72;;;5.11;47.30
45040;BME280;30778;53.574;7.770;2023-03-03T10:09:59;102560.69;;;5.12;46.38
45040;BME280;30778;53.574;7.770;2023-03-03T10:12:34;102571.31;;;5.40;45.58
45040;BME280;30778;53.574;7.770;2023-03-03T10:26:00;102573.09;;;5.47;46.28
45040;BME280;30778;53.574;7.770;2023-03-03T10:28:50;102567.63;;;5.13;47.76
45040;BME280;30778;53.574;7.770;2023-03-03T10:42:32;102560.44;;;5.87;45.87
45040;BME280;30778;53.574;7.770;2023-03-03T10:47:53;102556.44;;;6.38;44.80
45040;BME280;30778;53.574;7.770;2023-03-03T10:50:35;102555.53;;;6.30;43.96
45040;BME280;30778;53.574;7.770;2023-03-03T10:53:32;102561.72;;;6.66;43.62
45040;BME280;30778;53.574;7.770;2023-03-03T11:04:24;102555.31;;;5.93;43.97
45040;BME280;30778;53.574;7.770;2023-03-03T11:15:11;102542.47;;;6.21;42.89
45040;BME280;30778;53.574;7.770;2023-03-03T11:22:16;102541.56;;;6.14;41.73
45040;BME280;30778;53.574;7.770;2023-03-03T11:26:52;102543.94;;;5.73;42.15
45040;BME280;30778;53.574;7.770;2023-03-03T11:29:52;102542.91;;;5.57;42.61
45040;BME280;30778;53.574;7.770;2023-03-03T11:32:35;102535.28;;;5.77;42.84
45040;BME280;30778;53.574;7.770;2023-03-03T11:40:26;102530.53;;;6.57;38.50
45040;BME280;30778;53.574;7.770;2023-03-03T11:43:02;102524.50;;;6.62;39.22
45040;BME280;30778;53.574;7.770;2023-03-03T11:45:41;102523.72;;;7.11;38.76
45040;BME280;30778;53.574;7.770;2023-03-03T11:48:11;102518.53;;;7.29;38.09
45040;BME280;30778;53.574;7.770;2023-03-03T11:50:52;102521.97;;;7.28;37.45
45040;BME280;30778;53.574;7.770;2023-03-03T11:56:31;102525.47;;;7.33;37.20
45040;BME280;30778;53.574;7.770;2023-03-03T12:01:54;102517.59;;;6.95;37.48
45040;BME280;30778;53.574;7.770;2023-03-03T12:04:33;102509.84;;;7.04;37.76
45040;BME280;30778;53.574;7.770;2023-03-03T12:07:22;102502.03;;;6.92;37.63
45040;BME280;30778;53.574;7.770;2023-03-03T12:13:11;102507.75;;;5.97;38.85
45040;BME280;30778;53.574;7.770;2023-03-03T12:21:22;102507.94;;;6.36;39.18
45040;BME280;30778;53.574;7.770;2023-03-03T12:32:21;102489.81;;;6.51;38.32
45040;BME280;30778;53.574;7.770;2023-03-03T12:35:10;102487.31;;;7.39;37.68
45040;BME280;30778;53.574;7.770;2023-03-03T12:37:58;102488.16;;;7.71;37.50
45040;BME280;30778;53.574;7.770;2023-03-03T12:40:30;102495.09;;;6.94;37.26
45040;BME280;30778;53.574;7.770;2023-03-03T12:46:02;102486.34;;;6.57;38.07
45040;BME280;30778;53.574;7.770;2023-03-03T12:48:45;102481.22;;;6.97;38.29
45040;BME280;30778;53.574;7.770;2023-03-03T12:56:53;102473.34;;;6.46;38.98
45040;BME280;30778;53.574;7.770;2023-03-03T12:59:24;102470.75;;;6.43;39.08
45040;BME280;30778;53.574;7.770;2023-03-03T13:05:21;102470.34;;;5.64;39.28
45040;BME280;30778;53.574;7.770;2023-03-03T13:08:05;102471.44;;;6.05;39.59
45040;BME280;30778;53.574;7.770;2023-03-03T13:13:27;102468.09;;;6.29;39.56
45040;BME280;30778;53.574;7.770;2023-03-03T13:16:09;102457.44;;;5.77;39.87
45040;BME280;30778;53.574;7.770;2023-03-03T13:19:11;102452.53;;;6.29;39.21
45040;BME280;30778;53.574;7.770;2023-03-03T13:21:50;102456.94;;;7.33;36.43
45040;BME280;30778;53.574;7.770;2023-03-03T13:24:44;102448.25;;;7.62;36.21
45040;BME280;30778;53.574;7.770;2023-03-03T13:27:13;102448.25;;;7.62;35.91
45040;BME280;30778;53.574;7.770;2023-03-03T13:29:42;102452.63;;;7.15;36.73
45040;BME280;30778;53.574;7.770;2023-03-03T13:32:21;102451.66;;;6.36;38.87
45040;BME280;30778;53.574;7.770;2023-03-03T13:34:56;102453.47;;;6.65;38.04
45040;BME280;30778;53.574;7.770;2023-03-03T13:37:47;102441.34;;;7.33;36.92
45040;BME280;30778;53.574;7.770;2023-03-03T13:40:21;102449.19;;;7.01;36.92
45040;BME280;30778;53.574;7.770;2023-03-03T13:43:00;102433.28;;;5.85;39.68
45040;BME280;30778;53.574;7.770;2023-03-03T13:45:50;102435.00;;;5.82;39.73
45040;BME280;30778;53.574;7.770;2023-03-03T13:51:41;102437.59;;;5.88;39.73
45040;BME280;30778;53.574;7.770;2023-03-03T14:00:43;102424.34;;;5.36;42.84
45040;BME280;30778;53.574;7.770;2023-03-03T14:05:51;102422.69;;;5.50;41.61
45040;BME280;30778;53.574;7.770;2023-03-03T14:11:38;102417.50;;;5.50;41.63
45040;BME280;30778;53.574;7.770;2023-03-03T14:14:23;102410.44;;;5.24;41.55
45040;BME280;30778;53.574;7.770;2023-03-03T14:17:20;102411.34;;;5.30;41.37
45040;BME280;30778;53.574;7.770;2023-03-03T14:19:52;102404.28;;;5.12;42.52
45040;BME280;30778;53.574;7.770;2023-03-03T14:22:34;102407.75;;;5.09;43.10
45040;BME280;30778;53.574;7.770;2023-03-03T14:25:11;102395.78;;;5.30;42.21
45040;BME280;30778;53.574;7.770;2023-03-03T14:28:25;102402.53;;;5.06;42.93
45040;BME280;30778;53.574;7.770;2023-03-03T14:30:35;102408.41;;;4.87;43.45
45040;BME280;30778;53.574;7.770;2023-03-03T14:35:42;102399.28;;;5.33;42.24
45040;BME280;30778;53.574;7.770;2023-03-03T14:40:37;102391.41;;;5.22;42.37
45040;BME280;30778;53.574;7.770;2023-03-03T14:43:23;102401.13;;;5.56;42.25
45040;BME280;30778;53.574;7.770;2023-03-03T14:45:51;102389.94;;;5.61;42.30
45040;BME280;30778;53.574;7.770;2023-03-03T14:48:19;102387.03;;;5.11;42.42
45040;BME280;30778;53.574;7.770;2023-03-03T14:50:56;102384.34;;;4.97;43.01
45040;BME280;30778;53.574;7.770;2023-03-03T14:53:37;102386.91;;;4.92;42.66
45040;BME280;30778;53.574;7.770;2023-03-03T14:56:27;102386.06;;;4.95;43.12
45040;BME280;30778;53.574;7.770;2023-03-03T14:59:21;102382.97;;;5.56;42.38
45040;BME280;30778;53.574;7.770;2023-03-03T15:04:43;102371.53;;;5.23;42.54
45040;BME280;30778;53.574;7.770;2023-03-03T15:07:34;102375.88;;;5.24;42.86
45040;BME280;30778;53.574;7.770;2023-03-03T15:10:01;102372.34;;;5.14;43.54
45040;BME280;30778;53.574;7.770;2023-03-03T15:20:30;102368.53;;;4.69;44.30
45040;BME280;30778;53.574;7.770;2023-03-03T15:26:13;102356.53;;;4.82;43.58
45040;BME280;30778;53.574;7.770;2023-03-03T15:36:46;102342.09;;;5.09;43.76
45040;BME280;30778;53.574;7.770;2023-03-03T15:39:31;102341.84;;;4.81;44.50
45040;BME280;30778;53.574;7.770;2023-03-03T15:42:03;102338.44;;;4.87;44.77
45040;BME280;30778;53.574;7.770;2023-03-03T15:53:14;102333.47;;;5.14;43.91
45040;BME280;30778;53.574;7.770;2023-03-03T15:58:29;102327.38;;;5.06;44.93
45040;BME280;30778;53.574;7.770;2023-03-03T16:01:20;102328.16;;;4.93;44.95
45040;BME280;30778;53.574;7.770;2023-03-03T16:03:59;102332.91;;;4.43;45.46
45040;BME280;30778;53.574;7.770;2023-03-03T16:09:18;102332.03;;;4.41;45.14
45040;BME280;30778;53.574;7.770;2023-03-03T16:23:33;102344.81;;;4.25;44.89
45040;BME280;30778;53.574;7.770;2023-03-03T16:31:33;102334.84;;;3.79;45.94
45040;BME280;30778;53.574;7.770;2023-03-03T16:34:06;102342.31;;;3.57;46.34
45040;BME280;30778;53.574;7.770;2023-03-03T16:36:53;102339.00;;;3.66;46.24
45040;BME280;30778;53.574;7.770;2023-03-03T16:42:27;102338.00;;;3.56;46.58
45040;BME280;30778;53.574;7.770;2023-03-03T16:45:16;102349.44;;;3.74;46.26
45040;BME280;30778;53.574;7.770;2023-03-03T16:53:49;102360.41;;;3.57;46.72
45040;BME280;30778;53.574;7.770;2023-03-03T16:56:27;102355.75;;;4.00;46.01
45040;BME280;30778;53.574;7.770;2023-03-03T17:06:52;102354.72;;;3.85;46.87
45040;BME280;30778;53.574;7.770;2023-03-03T17:17:35;102374.59;;;3.89;46.19
45040;BME280;30778;53.574;7.770;2023-03-03T17:22:46;102375.66;;;3.36;47.55
45040;BME280;30778;53.574;7.770;2023-03-03T17:25:39;102371.38;;;4.08;45.76
45040;BME280;30778;53.574;7.770;2023-03-03T17:31:04;102383.97;;;3.80;46.65
45040;BME280;30778;53.574;7.770;2023-03-03T17:44:43;102379.44;;;3.63;46.97
45040;BME280;30778;53.574;7.770;2023-03-03T17:47:15;102379.63;;;3.75;46.94